Time;durP1;ratioP1;P1;durP2;ratioP2;P2;SDS_P1;SDS_P2;PMS_P1;PMS_P2;Temp;Humidity;BMP_temperature;BMP_pressure;BME280_temperature;BME280_humidity;BME280_pressure;Samples;Min_cycle;Max_cycle;Signal;HPM_P1;HPM_P2
2022/02/19 00:01:47;;;;;;;12.10;1.85;;;8.80;70.60;;;;;;5013016;28;20242;-73
2022/02/19 00:04:13;;;;;;;13.38;2.28;;;8.80;70.70;;;;;;5012984;28;20036;-73
2022/02/19 00:06:39;;;;;;;14.45;2.15;;;8.80;70.70;;;;;;5012850;28;20064;-73
2022/02/19 00:09:05;;;;;;;9.25;1.45;;;8.80;70.70;;;;;;5013371;28;20340;-73
2022/02/19 00:11:31;;;;;;;11.80;1.88;;;8.70;70.00;;;;;;5012858;28;20037;-73
2022/02/19 00:13:57;;;;;;;6.65;1.67;;;8.70;69.60;;;;;;5012679;28;20030;-73
2022/02/19 00:16:22;;;;;;;13.02;1.83;;;8.70;69.90;;;;;;5012826;28;20526;-73
2022/02/19 00:18:48;;;;;;;9.13;1.63;;;8.70;69.80;;;;;;5012537;28;20427;-73
2022/02/19 00:21:14;;;;;;;18.08;2.05;;;8.70;69.70;;;;;;5013049;28;20030;-76
2022/02/19 00:23:41;;;;;;;14.60;2.17;;;8.70;70.20;;;;;;5012717;28;20084;-73
2022/02/19 00:26:06;;;;;;;4.80;1.50;;;8.70;69.60;;;;;;5012763;28;20038;-74
2022/02/19 00:28:32;;;;;;;14.10;1.73;;;8.70;69.50;;;;;;5012633;28;20443;-73
2022/02/19 00:30:58;;;;;;;10.98;2.33;;;8.70;70.00;;;;;;5012484;28;20444;-74
2022/02/19 00:33:25;;;;;;;14.93;2.38;;;8.50;70.00;;;;;;5012859;28;20088;-73
2022/02/19 00:35:51;;;;;;;12.43;2.15;;;8.60;70.60;;;;;;5012052;28;20053;-73
2022/02/19 00:38:17;;;;;;;15.98;2.53;;;8.60;70.70;;;;;;5012275;28;20022;-72
2022/02/19 00:40:48;;;;;;;13.02;3.13;;;8.60;71.00;;;;;;4995038;28;20022;-74
2022/02/19 00:43:13;;;;;;;14.05;2.85;;;8.60;70.90;;;;;;5012257;28;20026;-73
2022/02/19 00:45:40;;;;;;;20.90;2.63;;;8.60;71.20;;;;;;5012177;28;20045;-73
2022/02/19 00:48:06;;;;;;;15.38;2.72;;;8.60;71.60;;;;;;5012765;28;20045;-73
2022/02/19 00:50:32;;;;;;;11.32;2.00;;;8.60;71.60;;;;;;5012174;28;20026;-73
2022/02/19 00:52:58;;;;;;;19.70;2.67;;;8.60;71.60;;;;;;5011939;28;20038;-74
2022/02/19 00:55:24;;;;;;;10.38;1.90;;;8.60;71.70;;;;;;5011963;28;20085;-74
2022/02/19 00:57:50;;;;;;;11.82;2.13;;;8.60;72.00;;;;;;5011863;28;20329;-74
2022/02/19 01:00:16;;;;;;;20.83;3.22;;;8.60;72.30;;;;;;5012479;28;20028;-72
2022/02/19 01:02:42;;;;;;;15.20;1.85;;;8.60;71.90;;;;;;5011759;28;20030;-72
2022/02/19 01:05:09;;;;;;;11.48;2.03;;;8.50;71.30;;;;;;5011852;28;20030;-74
2022/02/19 01:07:35;;;;;;;13.60;2.67;;;8.50;71.80;;;;;;5011689;28;20034;-73
2022/02/19 01:10:01;;;;;;;9.70;1.90;;;8.60;72.30;;;;;;5011669;28;20061;-75
2022/02/19 01:12:27;;;;;;;12.43;1.90;;;8.60;72.40;;;;;;5012078;28;20018;-74
2022/02/19 01:14:52;;;;;;;13.55;2.50;;;8.60;72.00;;;;;;5011595;28;20097;-73
2022/02/19 01:17:18;;;;;;;14.48;2.42;;;8.50;71.60;;;;;;5011642;28;20091;-74
2022/02/19 01:19:43;;;;;;;9.63;2.00;;;8.50;71.80;;;;;;5011850;28;20030;-75
2022/02/19 01:22:09;;;;;;;7.65;1.70;;;8.50;72.50;;;;;;5011491;28;20103;-75
2022/02/19 01:24:35;;;;;;;11.18;1.40;;;8.40;72.40;;;;;;4994177;28;20238;-74
2022/02/19 01:27:01;;;;;;;9.27;1.90;;;8.50;72.60;;;;;;5011839;28;20025;-74
2022/02/19 01:29:27;;;;;;;17.80;2.05;;;8.50;72.90;;;;;;5011020;28;20657;-73
2022/02/19 01:31:52;;;;;;;17.05;1.92;;;8.50;73.20;;;;;;5011634;28;20041;-73
2022/02/19 01:34:18;;;;;;;10.60;2.00;;;8.50;73.30;;;;;;4993623;28;20125;-73
2022/02/19 01:36:44;;;;;;;12.27;1.60;;;8.40;73.50;;;;;;5011329;28;20049;-74
2022/02/19 01:39:09;;;;;;;7.07;1.65;;;8.40;73.60;;;;;;5011919;28;20026;-73
2022/02/19 01:41:35;;;;;;;14.43;1.80;;;8.40;73.90;;;;;;5011221;28;20030;-72
2022/02/19 01:44:10;;;;;;;11.82;1.65;;;8.30;74.10;;;;;;4993754;28;20117;-73
2022/02/19 01:46:36;;;;;;;10.25;1.55;;;8.30;74.20;;;;;;5011136;28;20034;-73
2022/02/19 01:49:03;;;;;;;8.73;1.67;;;8.30;74.30;;;;;;5011265;28;20148;-74
2022/02/19 01:51:31;;;;;;;11.38;2.13;;;8.20;74.50;;;;;;5010981;28;20022;-71
2022/02/19 01:54:00;;;;;;;;;;;8.10;74.50;;;;;;5012049;28;20049;-72
2022/02/19 01:56:26;;;;;;;12.05;1.67;;;8.10;74.80;;;;;;5011034;28;19979;-74
2022/02/19 01:58:52;;;;;;;19.30;2.30;;;8.20;74.90;;;;;;4993737;28;20109;-73
2022/02/19 02:01:18;;;;;;;14.85;2.30;;;8.10;75.10;;;;;;5010975;28;20030;-73
2022/02/19 02:03:43;;;;;;;10.70;2.53;;;8.10;75.30;;;;;;5010904;28;20052;-72
2022/02/19 02:06:10;;;;;;;10.60;1.85;;;8.10;75.50;;;;;;5011491;28;20026;-73
2022/02/19 02:08:36;;;;;;;9.52;1.98;;;8.10;75.50;;;;;;5011184;28;20091;-73
2022/02/19 02:11:02;;;;;;;11.05;1.55;;;8.10;75.60;;;;;;5010791;28;20117;-73
2022/02/19 02:13:28;;;;;;;11.30;1.45;;;8.00;75.60;;;;;;5010925;28;20362;-73
2022/02/19 02:15:54;;;;;;;10.75;1.77;;;8.00;75.90;;;;;;5010848;28;20061;-73
2022/02/19 02:18:19;;;;;;;14.27;1.55;;;8.00;76.20;;;;;;5011277;28;20026;-72
2022/02/19 02:20:45;;;;;;;10.52;1.58;;;8.00;76.30;;;;;;5010821;28;20105;-73
2022/02/19 02:23:14;;;;;;;16.65;2.10;;;8.00;76.40;;;;;;5010777;28;20084;-75
2022/02/19 02:25:41;;;;;;;6.80;1.45;;;8.00;76.40;;;;;;5010725;28;20033;-74
2022/02/19 02:28:09;;;;;;;7.13;1.53;;;8.10;76.50;;;;;;4993344;28;20030;-72
2022/02/19 02:30:36;;;;;;;9.63;1.60;;;8.10;76.60;;;;;;5011021;28;20100;-73
2022/02/19 02:33:13;;;;;;;10.82;1.13;;;8.10;76.80;;;;;;5011174;28;20046;-72
2022/02/19 02:35:39;;;;;;;11.38;2.00;;;8.00;77.10;;;;;;5017217;28;20057;-74
2022/02/19 02:38:05;;;;;;;18.58;2.00;;;8.00;77.50;;;;;;5030392;28;20047;-75
2022/02/19 02:40:32;;;;;;;14.27;2.08;;;8.00;78.00;;;;;;5012963;28;20410;-73
2022/02/19 02:42:57;;;;;;;5.00;1.42;;;7.90;78.70;;;;;;5033953;28;20038;-73
2022/02/19 02:45:23;;;;;;;16.20;2.13;;;7.90;79.70;;;;;;5017314;28;20030;-72
2022/02/19 02:47:49;;;;;;;6.72;1.40;;;7.80;80.60;;;;;;5034298;28;20042;-73
2022/02/19 02:50:15;;;;;;;13.38;1.85;;;7.80;80.70;;;;;;5034083;28;20036;-72
2022/02/19 02:52:40;;;;;;;12.30;1.45;;;7.70;81.00;;;;;;5034149;28;20324;-72
2022/02/19 02:55:07;;;;;;;14.23;1.77;;;7.80;82.10;;;;;;5034071;28;20029;-72
2022/02/19 02:57:34;;;;;;;11.77;1.52;;;7.70;82.50;;;;;;5033939;28;20029;-72
2022/02/19 03:00:01;;;;;;;11.80;2.10;;;7.60;83.10;;;;;;5034432;28;20021;-72
2022/02/19 03:02:29;;;;;;;16.38;1.77;;;7.60;83.90;;;;;;5033970;28;20065;-72
2022/02/19 03:04:56;;;;;;;6.50;1.35;;;7.60;84.20;;;;;;5033748;28;20057;-72
2022/02/19 03:07:21;;;;;;;16.95;1.90;;;7.60;84.50;;;;;;5033724;28;20089;-72
2022/02/19 03:09:47;;;;;;;12.57;1.70;;;7.50;85.30;;;;;;5033688;28;20372;-72
2022/02/19 03:12:12;;;;;;;14.48;2.00;;;7.60;86.10;;;;;;5034108;28;20036;-72
2022/02/19 03:14:38;;;;;;;9.30;1.55;;;7.50;87.30;;;;;;5033662;28;20121;-73
2022/02/19 03:17:04;;;;;;;11.98;2.10;;;7.50;87.70;;;;;;5033564;28;20167;-72
2022/02/19 03:19:29;;;;;;;8.07;1.55;;;7.40;88.40;;;;;;5033625;28;20033;-71
2022/02/19 03:21:55;;;;;;;12.95;2.03;;;7.40;88.80;;;;;;5033388;28;20033;-72
2022/02/19 03:24:20;;;;;;;8.68;1.58;;;7.30;89.90;;;;;;5033856;28;20022;-73
2022/02/19 03:26:46;;;;;;;13.93;2.58;;;7.40;90.00;;;;;;5033727;28;20087;-73
2022/02/19 03:29:11;;;;;;;14.60;1.77;;;7.40;90.50;;;;;;5033727;28;20026;-72
2022/02/19 03:31:37;;;;;;;17.65;1.65;;;7.30;91.00;;;;;;5033487;28;20030;-72
2022/02/19 03:34:02;;;;;;;13.27;2.03;;;7.30;91.00;;;;;;5033282;28;20029;-73
2022/02/19 03:36:28;;;;;;;12.38;1.52;;;7.20;91.10;;;;;;5033494;28;20629;-72
2022/02/19 03:38:54;;;;;;;10.90;1.70;;;7.20;91.00;;;;;;5033649;28;20040;-73
2022/02/19 03:41:19;;;;;;;12.32;2.17;;;7.20;91.00;;;;;;5033000;28;20139;-73
2022/02/19 03:43:45;;;;;;;9.35;1.88;;;7.10;91.40;;;;;;5033226;28;20025;-73
2022/02/19 03:46:10;;;;;;;9.93;1.98;;;7.20;92.00;;;;;;5033091;28;20037;-73
2022/02/19 03:48:36;;;;;;;11.48;1.65;;;7.10;92.50;;;;;;5033207;28;20384;-72
2022/02/19 03:51:04;;;;;;;10.38;1.63;;;7.10;92.70;;;;;;5033461;28;20032;-73
2022/02/19 03:53:29;;;;;;;10.23;1.52;;;7.00;92.70;;;;;;5032503;28;20026;-73
2022/02/19 03:55:55;;;;;;;13.30;1.67;;;7.00;92.70;;;;;;5032807;28;20366;-74
2022/02/19 03:58:20;;;;;;;11.05;1.75;;;7.00;92.50;;;;;;5015257;28;20083;-74
2022/02/19 04:00:46;;;;;;;9.45;1.13;;;7.10;92.40;;;;;;5032762;28;20029;-73
2022/02/19 04:03:12;;;;;;;8.23;1.50;;;7.10;92.30;;;;;;5033304;28;20021;-72
2022/02/19 04:05:37;;;;;;;14.20;2.90;;;6.90;92.40;;;;;;5032820;28;20121;-72
2022/02/19 04:08:05;;;;;;;17.08;2.22;;;7.00;92.50;;;;;;5032787;28;20040;-72
2022/02/19 04:10:30;;;;;;;15.77;1.50;;;7.00;92.70;;;;;;5032744;28;20025;-73
2022/02/19 04:12:56;;;;;;;6.65;1.23;;;6.90;93.00;;;;;;5032513;28;20099;-73
2022/02/19 04:15:22;;;;;;;8.82;1.42;;;6.90;93.30;;;;;;5032800;28;20033;-73
2022/02/19 04:17:47;;;;;;;8.77;1.40;;;6.90;93.90;;;;;;5032532;28;20029;-72
2022/02/19 04:20:13;;;;;;;7.35;1.50;;;6.80;94.40;;;;;;5032559;28;20041;-72
2022/02/19 04:22:41;;;;;;;14.55;1.85;;;6.70;94.50;;;;;;5032267;28;20057;-72
2022/02/19 04:25:08;;;;;;;9.80;1.63;;;6.70;94.80;;;;;;5032402;28;20037;-73
2022/02/19 04:27:33;;;;;;;8.82;1.48;;;6.70;94.90;;;;;;5032263;28;20036;-72
2022/02/19 04:29:59;;;;;;;14.85;1.80;;;6.70;95.10;;;;;;5032677;28;20017;-73
2022/02/19 04:32:25;;;;;;;10.85;1.73;;;6.60;95.20;;;;;;5014776;28;20087;-73
2022/02/19 04:34:51;;;;;;;8.38;1.38;;;6.60;95.20;;;;;;5031912;28;20044;-73
2022/02/19 04:37:16;;;;;;;15.88;2.42;;;6.60;95.00;;;;;;5032060;28;20111;-73
2022/02/19 04:39:42;;;;;;;18.45;1.60;;;6.70;95.20;;;;;;5031999;28;20033;-73
2022/02/19 04:42:08;;;;;;;15.02;2.30;;;6.60;95.10;;;;;;5032514;28;20026;-72
2022/02/19 04:44:34;;;;;;;11.70;1.25;;;6.70;95.20;;;;;;5014496;28;20037;-72
2022/02/19 04:47:00;;;;;;;10.90;1.67;;;6.60;95.40;;;;;;5031968;28;20037;-73
2022/02/19 04:49:25;;;;;;;14.23;2.00;;;6.70;95.50;;;;;;5031949;28;20103;-73
2022/02/19 04:51:51;;;;;;;8.45;1.13;;;6.50;95.80;;;;;;5031742;28;20048;-73
2022/02/19 04:54:16;;;;;;;9.90;1.35;;;6.50;96.10;;;;;;5032233;28;20021;-73
2022/02/19 04:56:42;;;;;;;7.50;1.52;;;6.50;96.20;;;;;;5031697;28;20110;-73
2022/02/19 04:59:09;;;;;;;5.70;1.38;;;6.40;96.40;;;;;;5031723;28;20029;-73
2022/02/19 05:01:34;;;;;;;10.02;1.17;;;6.40;96.60;;;;;;5031907;28;20033;-73
2022/02/19 05:04:00;;;;;;;7.80;1.63;;;6.40;96.80;;;;;;5030724;28;20060;-73
2022/02/19 05:06:25;;;;;;;5.40;1.25;;;6.40;96.90;;;;;;5031725;28;20080;-73
2022/02/19 05:08:51;;;;;;;8.70;1.60;;;6.40;96.70;;;;;;5031545;28;20044;-73
2022/02/19 05:11:17;;;;;;;7.47;1.33;;;6.40;96.70;;;;;;5031544;28;20095;-73
2022/02/19 05:13:42;;;;;;;8.23;2.00;;;6.40;96.60;;;;;;5031517;28;20042;-73
2022/02/19 05:16:08;;;;;;;10.35;1.55;;;6.40;96.40;;;;;;5031346;28;20057;-74
2022/02/19 05:18:33;;;;;;;8.75;1.25;;;6.40;96.20;;;;;;5014031;28;20138;-73
2022/02/19 05:20:59;;;;;;;8.85;1.75;;;6.40;96.10;;;;;;5014375;28;20479;-73
2022/02/19 05:23:24;;;;;;;8.55;1.40;;;6.50;96.20;;;;;;5031326;28;20525;-72
2022/02/19 05:25:50;;;;;;;10.43;2.08;;;6.50;96.30;;;;;;5031315;28;20029;-73
2022/02/19 05:28:16;;;;;;;13.15;2.00;;;6.30;96.40;;;;;;5013797;28;20455;-72
2022/02/19 05:30:42;;;;;;;10.35;1.80;;;6.40;96.40;;;;;;5031219;28;20458;-73
2022/02/19 05:33:07;;;;;;;5.85;1.30;;;6.40;96.50;;;;;;5031530;28;20021;-73
2022/02/19 05:35:33;;;;;;;9.90;1.58;;;6.40;96.50;;;;;;5030867;28;20436;-72
2022/02/19 05:38:00;;;;;;;17.38;1.88;;;6.40;96.50;;;;;;5031074;28;20064;-72
2022/02/19 05:40:26;;;;;;;8.82;1.50;;;6.40;96.10;;;;;;5030973;28;20411;-74
2022/02/19 05:42:51;;;;;;;11.18;1.58;;;6.40;96.10;;;;;;5030816;28;20041;-74
2022/02/19 05:45:17;;;;;;;11.63;1.55;;;6.40;96.00;;;;;;5031292;28;20064;-74
2022/02/19 05:47:43;;;;;;;10.15;1.35;;;6.30;95.90;;;;;;5013547;28;20029;-73
2022/02/19 05:50:09;;;;;;;16.42;2.13;;;6.50;95.90;;;;;;5030954;28;20041;-73
2022/02/19 05:52:34;;;;;;;10.20;1.67;;;6.40;96.00;;;;;;5031029;28;20029;-72
2022/02/19 05:55:00;;;;;;;15.90;3.40;;;6.30;96.60;;;;;;5030646;28;20431;-73
2022/02/19 05:57:26;;;;;;;10.60;1.50;;;6.30;96.90;;;;;;5013607;28;20029;-73
2022/02/19 05:59:51;;;;;;;11.65;1.40;;;6.20;96.70;;;;;;5030789;28;20021;-73
2022/02/19 06:02:17;;;;;;;14.63;1.83;;;6.30;96.80;;;;;;5030728;28;20478;-73
2022/02/19 06:04:44;;;;;;;13.05;1.35;;;6.30;97.20;;;;;;5030668;28;20044;-72
2022/02/19 06:07:09;;;;;;;8.32;1.38;;;6.20;97.10;;;;;;5030681;28;20119;-73
2022/02/19 06:09:35;;;;;;;11.25;1.77;;;6.10;97.40;;;;;;5030827;28;20063;-72
2022/02/19 06:12:00;;;;;;;10.43;1.80;;;6.10;97.80;;;;;;5013585;28;20127;-72
2022/02/19 06:14:26;;;;;;;9.07;1.63;;;6.10;97.70;;;;;;5030627;28;20034;-73
2022/02/19 06:16:52;;;;;;;10.50;2.00;;;6.10;97.80;;;;;;5015789;28;20041;-73
2022/02/19 06:19:18;;;;;;;14.73;1.77;;;6.10;97.90;;;;;;5034765;28;20545;-73
2022/02/19 06:21:43;;;;;;;9.48;1.30;;;6.10;97.70;;;;;;5034779;28;20044;-73
2022/02/19 06:24:09;;;;;;;8.35;1.58;;;6.10;97.60;;;;;;5035324;28;20056;-73
2022/02/19 06:26:35;;;;;;;8.43;1.58;;;6.10;97.40;;;;;;5034723;28;20083;-72
2022/02/19 06:29:01;;;;;;;9.80;1.50;;;6.30;97.30;;;;;;5034633;28;20034;-72
2022/02/19 06:31:27;;;;;;;8.63;1.55;;;6.30;97.10;;;;;;5034544;28;20121;-72
2022/02/19 06:33:52;;;;;;;8.60;1.80;;;6.20;97.20;;;;;;5034224;28;20112;-73
2022/02/19 06:36:19;;;;;;;9.18;1.48;;;6.30;96.80;;;;;;5034526;28;20050;-73
2022/02/19 06:38:46;;;;;;;10.52;1.80;;;6.30;96.40;;;;;;5016966;28;20427;-83
2022/02/19 06:41:12;;;;;;;7.90;1.50;;;6.40;96.50;;;;;;5034483;28;20099;-72
2022/02/19 06:43:38;;;;;;;12.50;2.90;;;6.50;96.10;;;;;;5017237;28;20524;-72
2022/02/19 06:46:04;;;;;;;15.00;1.88;;;6.50;95.80;;;;;;5034330;28;20025;-71
2022/02/19 06:48:29;;;;;;;12.35;1.50;;;6.50;95.50;;;;;;5034076;28;20443;-71
2022/02/19 06:50:56;;;;;;;9.40;1.80;;;6.60;95.00;;;;;;5034869;28;20025;-70
2022/02/19 06:53:22;;;;;;;15.85;2.03;;;6.60;94.80;;;;;;5033968;28;20030;-72
2022/02/19 06:55:48;;;;;;;11.90;2.03;;;6.60;94.60;;;;;;5033954;28;20149;-72
2022/02/19 06:58:14;;;;;;;13.55;2.20;;;6.80;94.20;;;;;;5034098;28;20514;-73
2022/02/19 07:00:40;;;;;;;11.52;1.80;;;6.80;93.60;;;;;;5033870;28;20026;-71
2022/02/19 07:03:05;;;;;;;14.18;1.77;;;6.80;93.50;;;;;;5034315;28;20026;-71
2022/02/19 07:05:31;;;;;;;13.23;2.10;;;6.80;92.90;;;;;;5033681;28;20038;-71
2022/02/19 07:07:57;;;;;;;12.23;1.52;;;6.90;92.90;;;;;;5033927;28;20065;-70
2022/02/19 07:10:23;;;;;;;15.68;2.38;;;6.80;92.60;;;;;;5034003;28;20033;-71
2022/02/19 07:12:48;;;;;;;14.95;3.22;;;6.90;92.70;;;;;;5034048;28;20585;-71
2022/02/19 07:15:20;;;;;;;8.70;1.48;;;6.90;92.60;;;;;;5034300;28;20440;-72
2022/02/19 07:17:50;;;;;;;5.80;1.15;;;6.90;92.50;;;;;;5016272;28;20025;-71
2022/02/19 07:20:16;;;;;;;12.88;1.88;;;6.90;92.50;;;;;;5033751;28;20037;-72
2022/02/19 07:22:41;;;;;;;14.90;1.83;;;6.90;92.10;;;;;;5033775;28;20513;-72
2022/02/19 07:25:08;;;;;;;18.02;2.40;;;6.90;92.10;;;;;;5033586;28;20037;-74
2022/02/19 07:27:41;;;;;;;7.53;1.48;;;7.00;92.30;;;;;;5032289;28;20018;-70
2022/02/19 07:30:09;;;;;;;20.48;1.85;;;6.90;92.20;;;;;;5016311;28;20014;-72
2022/02/19 07:32:37;;;;;;;11.88;1.88;;;6.90;92.30;;;;;;5033535;28;20037;-70
2022/02/19 07:35:07;;;;;;;15.88;2.35;;;7.00;92.20;;;;;;5033062;28;20471;-72
2022/02/19 07:37:33;;;;;;;13.68;1.90;;;7.00;92.30;;;;;;5033247;28;20049;-73
2022/02/19 07:39:59;;;;;;;16.92;2.47;;;7.00;92.30;;;;;;5033517;28;20034;-74
2022/02/19 07:42:24;;;;;;;12.10;1.77;;;7.00;92.20;;;;;;5033815;28;20517;-73
2022/02/19 07:44:52;;;;;;;11.32;1.25;;;7.00;92.00;;;;;;5033845;28;20417;-74
2022/02/19 07:47:25;;;;;;;12.25;1.63;;;7.10;92.10;;;;;;5033887;28;20029;-74
2022/02/19 07:58:23;;;;;;;13.38;1.48;;;7.20;91.60;;;;;;5033800;28;20076;-72
2022/02/19 08:00:57;;;;;;;10.52;3.35;;;7.40;91.60;;;;;;5032883;28;20088;-72
2022/02/19 08:03:25;;;;;;;7.63;1.90;;;7.30;91.40;;;;;;5033140;28;20040;-74
2022/02/19 08:05:53;;;;;;;17.27;2.30;;;7.30;91.60;;;;;;5032938;28;20040;-74
2022/02/19 08:08:20;;;;;;;15.60;2.15;;;7.30;91.50;;;;;;5032984;28;20034;-72
2022/02/19 08:10:46;;;;;;;14.25;2.22;;;7.40;91.30;;;;;;5032742;28;20033;-72
2022/02/19 08:13:13;;;;;;;18.15;2.00;;;7.40;91.30;;;;;;5032616;28;20045;-71
2022/02/19 08:15:39;;;;;;;17.08;2.55;;;7.40;91.30;;;;;;5032721;28;20030;-71
2022/02/19 08:18:07;;;;;;;15.00;2.58;;;7.40;91.10;;;;;;5033613;28;20021;-73
2022/02/19 08:20:35;;;;;;;29.48;2.97;;;7.40;91.40;;;;;;5017610;28;20415;-75
2022/02/19 08:23:01;;;;;;;;;;;7.40;91.20;;;;;;5034435;28;20030;-75
2022/02/19 08:25:27;;;;;;;14.82;2.00;;;7.40;91.20;;;;;;5033938;28;19920;-74
2022/02/19 08:27:53;;;;;;;16.50;2.40;;;7.50;91.00;;;;;;5036313;28;20447;-74
2022/02/19 08:30:19;;;;;;;12.93;1.90;;;7.50;90.90;;;;;;5033288;28;20657;-76
2022/02/19 08:32:45;;;;;;;10.48;1.98;;;7.60;90.90;;;;;;5032283;28;20030;-72
2022/02/19 08:35:10;;;;;;;16.48;2.30;;;7.50;90.80;;;;;;5014386;28;20050;-75
2022/02/19 08:37:36;;;;;;;12.70;2.00;;;7.50;90.50;;;;;;5032213;28;20102;-75
2022/02/19 08:40:02;;;;;;;11.57;1.63;;;7.60;90.50;;;;;;5031813;28;20030;-75
2022/02/19 08:42:28;;;;;;;13.43;1.77;;;7.60;90.70;;;;;;5032628;28;20048;-74
2022/02/19 08:44:54;;;;;;;13.60;2.55;;;7.70;90.70;;;;;;5014530;28;20037;-74
2022/02/19 08:47:20;;;;;;;12.90;1.92;;;7.70;90.30;;;;;;5014530;28;20030;-74
2022/02/19 08:49:46;;;;;;;18.55;2.65;;;7.80;90.60;;;;;;5031986;28;20033;-76
2022/02/19 08:52:11;;;;;;;16.33;2.28;;;8.00;90.50;;;;;;5032308;28;20060;-73
2022/02/19 08:54:37;;;;;;;13.00;2.10;;;8.00;90.20;;;;;;5031905;28;20032;-73
2022/02/19 08:57:03;;;;;;;11.43;2.05;;;8.00;90.20;;;;;;5033920;28;20033;-72
2022/02/19 08:59:29;;;;;;;16.17;2.03;;;7.90;89.90;;;;;;5033593;28;20107;-72
2022/02/19 09:01:56;;;;;;;15.23;2.28;;;7.80;89.70;;;;;;5033118;28;20117;-72
2022/02/19 09:04:22;;;;;;;17.88;2.47;;;7.80;90.00;;;;;;5034305;28;20009;-72
2022/02/19 09:06:47;;;;;;;15.75;1.92;;;7.90;89.40;;;;;;5032294;28;20059;-74
2022/02/19 09:09:13;;;;;;;21.27;2.08;;;7.90;89.40;;;;;;5016118;28;20124;-74
2022/02/19 09:11:39;;;;;;;14.45;2.28;;;7.90;88.90;;;;;;5032695;28;20055;-74
2022/02/19 09:14:06;;;;;;;13.93;2.05;;;7.80;89.00;;;;;;5032496;28;20404;-74
2022/02/19 09:16:34;;;;;;;17.08;2.65;;;7.90;89.30;;;;;;5031270;28;20147;-73
2022/02/19 09:19:01;;;;;;;13.18;1.95;;;7.80;89.30;;;;;;5013991;28;20473;-74
2022/02/19 09:21:28;;;;;;;16.10;2.10;;;7.80;89.80;;;;;;5014485;28;20474;-75
2022/02/19 09:23:54;;;;;;;15.75;2.72;;;7.80;89.90;;;;;;5031250;28;20033;-74
2022/02/19 09:26:21;;;;;;;16.08;2.58;;;7.90;90.00;;;;;;5031716;28;20097;-76
2022/02/19 09:28:47;;;;;;;13.85;2.03;;;7.90;89.90;;;;;;5032116;28;20483;-73
2022/02/19 09:31:14;;;;;;;15.80;2.47;;;7.90;90.70;;;;;;5032240;28;20110;-75
2022/02/19 09:33:39;;;;;;;18.02;2.15;;;7.90;89.50;;;;;;5032007;28;20034;-74
2022/02/19 09:36:06;;;;;;;16.08;3.88;;;8.00;89.50;;;;;;5032161;28;20060;-74
2022/02/19 09:38:32;;;;;;;10.25;1.75;;;8.00;89.10;;;;;;5031440;28;20112;-74
2022/02/19 09:41:00;;;;;;;13.63;1.98;;;8.10;88.80;;;;;;5032414;28;20503;-74
2022/02/19 09:43:26;;;;;;;11.18;1.50;;;8.30;88.40;;;;;;5031487;28;20030;-72
2022/02/19 09:45:51;;;;;;;15.32;1.88;;;8.50;87.70;;;;;;5013848;28;20036;-74
2022/02/19 09:48:18;;;;;;;11.48;1.73;;;8.50;87.50;;;;;;5031844;28;20470;-73
2022/02/19 09:50:46;;;;;;;7.72;1.67;;;8.50;87.10;;;;;;5030969;28;20029;-73
2022/02/19 09:53:12;;;;;;;15.13;1.70;;;8.50;87.10;;;;;;5031105;28;20032;-73
2022/02/19 09:55:38;;;;;;;11.38;2.55;;;8.60;86.60;;;;;;5031174;28;20045;-73
2022/02/19 09:58:04;;;;;;;8.57;1.80;;;8.60;86.30;;;;;;5034659;28;20040;-73
2022/02/19 10:00:37;;;;;;;15.55;1.98;;;8.60;85.90;;;;;;5035732;28;20030;-73
2022/02/19 10:03:03;;;;;;;11.63;2.10;;;8.50;86.10;;;;;;5036960;28;20025;-73
2022/02/19 10:05:32;;;;;;;6.65;1.33;;;8.50;86.20;;;;;;5036356;28;20686;-74
2022/02/19 10:08:06;;;;;;;7.53;1.80;;;8.70;86.10;;;;;;5034215;28;20125;-74
2022/02/19 10:10:52;;;;;;;12.15;2.00;;;8.70;85.90;;;;;;5034067;28;20052;-74
2022/02/19 10:13:38;;;;;;;14.05;2.55;;;8.70;85.70;;;;;;5035987;28;20491;-73
2022/02/19 10:16:05;;;;;;;6.20;1.30;;;8.80;86.30;;;;;;5019032;28;20034;-74
2022/02/19 10:18:34;;;;;;;6.68;1.42;;;9.10;86.00;;;;;;5034925;28;20443;-73
2022/02/19 10:21:26;;;;;;;9.60;1.25;;;9.00;85.00;;;;;;5033515;28;20120;-74
2022/02/19 10:23:56;;;;;;;9.95;1.42;;;9.10;85.50;;;;;;5013582;28;20039;-73
2022/02/19 10:26:25;;;;;;;11.00;1.90;;;9.30;85.80;;;;;;5030679;28;20483;-73
2022/02/19 10:29:07;;;;;;;13.13;2.25;;;9.40;85.30;;;;;;5030713;28;20037;-74
2022/02/19 10:31:34;;;;;;;9.65;1.80;;;9.50;85.70;;;;;;5031057;28;20025;-74
2022/02/19 10:34:16;;;;;;;13.17;1.90;;;9.30;85.50;;;;;;5030496;28;20515;-73
2022/02/19 10:36:45;;;;;;;14.88;1.90;;;9.60;85.90;;;;;;5030362;28;20051;-74
2022/02/19 10:39:11;;;;;;;14.90;1.73;;;9.70;85.40;;;;;;5030942;28;20455;-74
2022/02/19 10:41:38;;;;;;;11.05;1.40;;;9.60;84.40;;;;;;5030674;28;20092;-74
2022/02/19 10:44:23;;;;;;;15.85;2.25;;;9.80;84.30;;;;;;5013316;28;20550;-74
2022/02/19 10:46:49;;;;;;;9.75;1.85;;;9.80;84.20;;;;;;5030707;28;20124;-73
2022/02/19 10:49:15;;;;;;;8.88;2.05;;;10.00;83.10;;;;;;5030861;28;20032;-75
2022/02/19 10:51:42;;;;;;;11.38;2.28;;;9.80;84.10;;;;;;5030620;28;20033;-74
2022/02/19 10:54:09;;;;;;;13.35;1.55;;;9.60;84.90;;;;;;5030869;28;20029;-73
2022/02/19 10:56:36;;;;;;;8.82;1.83;;;9.50;85.40;;;;;;5030156;28;20129;-74
2022/02/19 10:59:11;;;;;;;11.57;2.23;;;9.60;85.30;;;;;;5030273;28;20108;-74
2022/02/19 11:01:49;;;;;;;11.38;1.60;;;9.30;86.10;;;;;;5030930;28;20091;-74
2022/02/19 11:04:17;;;;;;;8.50;1.65;;;9.40;86.40;;;;;;5034057;28;20033;-74
2022/02/19 11:06:43;;;;;;;6.90;1.70;;;9.60;86.10;;;;;;5034041;28;20025;-73
2022/02/19 11:09:11;;;;;;;18.30;2.20;;;9.50;85.10;;;;;;5034512;28;20018;-75
2022/02/19 11:11:38;;;;;;;12.45;2.00;;;9.10;85.40;;;;;;5034054;28;20433;-75
2022/02/19 11:14:05;;;;;;;9.45;1.85;;;9.20;85.40;;;;;;5016524;28;20042;-74
2022/02/19 11:16:32;;;;;;;12.13;2.00;;;9.10;85.40;;;;;;5033979;28;20040;-72
2022/02/19 11:18:58;;;;;;;10.07;2.15;;;9.00;85.10;;;;;;5013592;28;20137;-74
2022/02/19 11:21:25;;;;;;;17.17;1.85;;;8.80;84.60;;;;;;4997550;28;20539;-74
2022/02/19 11:23:53;;;;;;;14.32;2.05;;;8.90;85.60;;;;;;5014373;28;20041;-75
2022/02/19 11:26:22;;;;;;;6.93;1.85;;;9.10;85.40;;;;;;5014528;28;20034;-75
2022/02/19 11:28:49;;;;;;;14.10;2.08;;;9.00;84.90;;;;;;5014125;28;20040;-73
2022/02/19 11:31:16;;;;;;;6.40;1.20;;;9.00;85.20;;;;;;5014305;28;20395;-77
2022/02/19 11:33:44;;;;;;;8.35;1.58;;;9.10;85.70;;;;;;5014013;28;20021;-73
2022/02/19 11:36:11;;;;;;;12.15;1.95;;;8.80;84.70;;;;;;5014118;28;20057;-73
2022/02/19 11:38:48;;;;;;;13.07;2.35;;;8.80;84.40;;;;;;5014631;28;20023;-73
2022/02/19 11:41:16;;;;;;;12.63;2.00;;;8.80;84.60;;;;;;5014889;28;20498;-75
2022/02/19 11:43:46;;;;;;;11.35;1.95;;;8.90;83.90;;;;;;5014945;28;20062;-74
2022/02/19 11:46:15;;;;;;;14.10;2.80;;;8.80;83.70;;;;;;5014490;28;20076;-73
2022/02/19 11:48:42;;;;;;;9.55;1.45;;;8.90;84.00;;;;;;4996350;28;20033;-72
2022/02/19 11:51:19;;;;;;;8.43;2.17;;;9.30;82.90;;;;;;4997063;28;20048;-72
2022/02/19 11:53:52;;;;;;;12.10;1.85;;;9.40;81.30;;;;;;5014306;28;20038;-72
2022/02/19 11:56:28;;;;;;;9.43;1.50;;;9.40;80.70;;;;;;5013141;28;20030;-73
2022/02/19 11:58:57;;;;;;;10.98;1.40;;;9.10;80.40;;;;;;4996148;28;20383;-73
2022/02/19 12:01:22;;;;;;;9.95;1.63;;;9.30;80.60;;;;;;5013405;28;20026;-72
2022/02/19 12:04:08;;;;;;;13.18;2.47;;;9.10;80.20;;;;;;4996003;28;20032;-72
2022/02/19 12:06:34;;;;;;;11.88;2.17;;;9.10;80.60;;;;;;5012923;28;20492;-71
2022/02/19 12:09:10;;;;;;;7.63;1.42;;;9.30;80.40;;;;;;4996006;28;20050;-74
2022/02/19 12:11:55;;;;;;;13.02;1.60;;;9.30;79.60;;;;;;5012212;28;20038;-73
2022/02/19 12:14:39;;;;;;;8.30;1.50;;;9.40;79.00;;;;;;5012268;28;20030;-73
2022/02/19 12:17:09;;;;;;;2.03;1.30;;;9.70;79.00;;;;;;5012635;28;20037;-72
2022/02/19 12:20:02;;;;;;;9.65;1.73;;;9.80;78.40;;;;;;5012875;28;20046;-72
2022/02/19 12:22:33;;;;;;;10.63;1.35;;;9.50;77.50;;;;;;5012939;28;20117;-72
2022/02/19 12:24:59;;;;;;;6.65;1.95;;;9.60;78.20;;;;;;5012879;28;20030;-72
2022/02/19 12:27:25;;;;;;;9.50;1.65;;;9.60;78.30;;;;;;5013114;28;20080;-73
2022/02/19 12:30:11;;;;;;;7.55;1.35;;;9.40;78.40;;;;;;4995391;28;20414;-71
2022/02/19 12:32:44;;;;;;;10.00;1.58;;;9.50;78.50;;;;;;4995091;28;20042;-72
2022/02/19 12:35:10;;;;;;;13.77;2.33;;;9.60;78.30;;;;;;5012222;28;20157;-72
2022/02/19 12:37:36;;;;;;;11.38;1.55;;;9.60;78.00;;;;;;5012489;28;20038;-73
2022/02/19 12:40:03;;;;;;;11.27;1.73;;;9.60;78.10;;;;;;5012432;28;20041;-71
2022/02/19 12:42:30;;;;;;;12.82;1.90;;;9.70;78.00;;;;;;5012778;28;20037;-72
2022/02/19 12:45:00;;;;;;;14.35;1.80;;;9.90;78.70;;;;;;4995431;28;20041;-72
2022/02/19 12:47:26;;;;;;;10.15;1.77;;;9.70;77.00;;;;;;5012794;28;20117;-72
2022/02/19 12:49:52;;;;;;;11.77;3.13;;;9.50;77.30;;;;;;5012501;28;20125;-72
2022/02/19 12:52:20;;;;;;;14.48;2.33;;;9.50;77.90;;;;;;4995048;28;20084;-72
2022/02/19 12:54:45;;;;;;;;;;;9.60;77.90;;;;;;5012936;28;20424;-72
2022/02/19 12:57:16;;;;;;;9.25;1.30;;;9.40;77.60;;;;;;5012748;28;19956;-72
2022/02/19 12:59:44;;;;;;;10.40;1.73;;;9.30;77.50;;;;;;5012070;28;20030;-72